sensor_id;sensor_type;location;lat;lon;timestamp;pressure;altitude;pressure_sealevel;temperature;humidity
46846;BME280;33947;46.804;134.252;2023-03-23T00:00:48;100396.94;;;6.66;73.03
46846;BME280;33947;46.804;134.252;2023-03-23T00:03:52;100403.88;;;6.74;73.26
46846;BME280;33947;46.804;134.252;2023-03-23T00:06:57;100389.81;;;6.72;72.58
46846;BME280;33947;46.804;134.252;2023-03-23T00:10:03;100396.31;;;7.10;72.19
46846;BME280;33947;46.804;134.252;2023-03-23T00:13:05;100401.72;;;7.59;71.07
46846;BME280;33947;46.804;134.252;2023-03-23T00:16:09;100402.56;;;7.61;70.59
46846;BME280;33947;46.804;134.252;2023-03-23T00:19:21;100404.72;;;7.89;69.38
46846;BME280;33947;46.804;134.252;2023-03-23T00:22:24;100405.50;;;7.95;68.76
46846;BME280;33947;46.804;134.252;2023-03-23T00:25:27;100392.41;;;7.88;67.79
46846;BME280;33947;46.804;134.252;2023-03-23T00:28:29;100393.06;;;8.01;67.60
46846;BME280;33947;46.804;134.252;2023-03-23T00:31:32;100391.19;;;8.04;66.30
46846;BME280;33947;46.804;134.252;2023-03-23T00:34:37;100367.84;;;7.81;66.00
46846;BME280;33947;46.804;134.252;2023-03-23T00:37:40;100385.78;;;8.12;64.72
46846;BME280;33947;46.804;134.252;2023-03-23T00:40:43;100379.56;;;8.15;64.87
46846;BME280;33947;46.804;134.252;2023-03-23T00:43:46;100378.53;;;8.22;64.72
46846;BME280;33947;46.804;134.252;2023-03-23T00:46:50;100368.34;;;8.46;64.98
46846;BME280;33947;46.804;134.252;2023-03-23T00:49:53;100351.66;;;8.83;63.18
46846;BME280;33947;46.804;134.252;2023-03-23T00:52:58;100355.50;;;9.09;61.86
46846;BME280;33947;46.804;134.252;2023-03-23T00:56:01;100352.28;;;9.34;60.77
46846;BME280;33947;46.804;134.252;2023-03-23T00:59:04;100345.75;;;9.46;61.02
46846;BME280;33947;46.804;134.252;2023-03-23T01:02:06;100340.16;;;8.84;61.60
46846;BME280;33947;46.804;134.252;2023-03-23T01:05:11;100335.88;;;9.85;60.62
46846;BME280;33947;46.804;134.252;2023-03-23T01:08:14;100346.84;;;10.36;59.09
46846;BME280;33947;46.804;134.252;2023-03-23T01:11:18;100348.94;;;10.86;58.45
46846;BME280;33947;46.804;134.252;2023-03-23T01:14:21;100342.56;;;10.92;58.76
46846;BME280;33947;46.804;134.252;2023-03-23T01:17:31;100343.47;;;11.20;56.10
46846;BME280;33947;46.804;134.252;2023-03-23T01:20:35;100337.72;;;11.32;56.41
46846;BME280;33947;46.804;134.252;2023-03-23T01:23:38;100338.25;;;10.88;56.84
46846;BME280;33947;46.804;134.252;2023-03-23T01:26:42;100338.75;;;11.28;55.07
46846;BME280;33947;46.804;134.252;2023-03-23T01:29:44;100341.19;;;10.79;54.70
46846;BME280;33947;46.804;134.252;2023-03-23T01:32:47;100336.41;;;11.19;54.81
46846;BME280;33947;46.804;134.252;2023-03-23T01:35:49;100333.16;;;11.63;53.84
46846;BME280;33947;46.804;134.252;2023-03-23T01:38:53;100332.34;;;11.86;52.66
46846;BME280;33947;46.804;134.252;2023-03-23T01:41:56;100333.66;;;11.74;52.54
46846;BME280;33947;46.804;134.252;2023-03-23T01:45:24;100276.19;;;10.62;51.73
46846;BME280;33947;46.804;134.252;2023-03-23T01:48:33;100316.34;;;11.35;54.20
46846;BME280;33947;46.804;134.252;2023-03-23T01:51:45;100313.97;;;11.27;51.20
46846;BME280;33947;46.804;134.252;2023-03-23T01:54:49;100279.66;;;10.64;51.29
46846;BME280;33947;46.804;134.252;2023-03-23T01:57:56;100306.84;;;10.73;50.36
46846;BME280;33947;46.804;134.252;2023-03-23T02:01:03;100302.53;;;10.97;51.48
46846;BME280;33947;46.804;134.252;2023-03-23T02:04:07;100227.13;;;11.01;49.58
46846;BME280;33947;46.804;134.252;2023-03-23T02:07:14;100292.03;;;11.46;47.25
46846;BME280;33947;46.804;134.252;2023-03-23T02:10:17;100295.56;;;11.21;45.95
46846;BME280;33947;46.804;134.252;2023-03-23T02:13:20;100281.56;;;10.29;41.77
46846;BME280;33947;46.804;134.252;2023-03-23T02:16:55;100297.47;;;9.99;38.24
46846;BME280;33947;46.804;134.252;2023-03-23T02:23:51;100294.66;;;10.35;42.16
46846;BME280;33947;46.804;134.252;2023-03-23T02:27:38;100292.09;;;10.64;41.97
46846;BME280;33947;46.804;134.252;2023-03-23T02:33:57;100271.47;;;11.26;42.77
46846;BME280;33947;46.804;134.252;2023-03-23T02:37:10;100268.50;;;11.61;43.01
46846;BME280;33947;46.804;134.252;2023-03-23T02:40:23;100292.00;;;11.73;40.80
46846;BME280;33947;46.804;134.252;2023-03-23T02:43:33;100266.66;;;11.63;40.15
46846;BME280;33947;46.804;134.252;2023-03-23T02:46:40;100267.78;;;11.81;41.44
46846;BME280;33947;46.804;134.252;2023-03-23T02:49:44;100264.59;;;12.20;39.42
46846;BME280;33947;46.804;134.252;2023-03-23T02:52:49;100251.72;;;12.08;34.61
46846;BME280;33947;46.804;134.252;2023-03-23T02:55:54;100246.91;;;11.94;34.00
46846;BME280;33947;46.804;134.252;2023-03-23T02:59:03;100243.28;;;11.71;31.61
46846;BME280;33947;46.804;134.252;2023-03-23T03:02:25;100240.25;;;11.82;32.99
46846;BME280;33947;46.804;134.252;2023-03-23T03:08:55;100234.00;;;11.32;32.33
46846;BME280;33947;46.804;134.252;2023-03-23T03:12:08;100236.81;;;11.78;33.64
46846;BME280;33947;46.804;134.252;2023-03-23T03:15:29;100227.72;;;11.35;34.91
46846;BME280;33947;46.804;134.252;2023-03-23T03:18:56;100225.53;;;10.95;32.88
46846;BME280;33947;46.804;134.252;2023-03-23T03:22:00;100221.28;;;10.90;34.60
46846;BME280;33947;46.804;134.252;2023-03-23T03:25:14;100226.91;;;11.07;33.91
46846;BME280;33947;46.804;134.252;2023-03-23T03:28:20;100216.13;;;10.85;34.80
46846;BME280;33947;46.804;134.252;2023-03-23T03:31:35;100213.81;;;11.01;32.97
46846;BME280;33947;46.804;134.252;2023-03-23T03:34:40;100209.56;;;10.68;36.17
46846;BME280;33947;46.804;134.252;2023-03-23T03:37:44;100209.47;;;10.98;35.16
46846;BME280;33947;46.804;134.252;2023-03-23T03:40:47;100208.56;;;10.99;35.90
46846;BME280;33947;46.804;134.252;2023-03-23T03:43:51;100196.06;;;11.02;34.39
46846;BME280;33947;46.804;134.252;2023-03-23T03:46:54;100199.06;;;10.92;34.99
46846;BME280;33947;46.804;134.252;2023-03-23T03:49:57;100194.78;;;10.88;36.49
46846;BME280;33947;46.804;134.252;2023-03-23T03:53:05;100188.69;;;11.10;36.60
46846;BME280;33947;46.804;134.252;2023-03-23T03:56:08;100182.16;;;11.20;35.86
46846;BME280;33947;46.804;134.252;2023-03-23T03:59:17;100176.06;;;10.91;38.46
46846;BME280;33947;46.804;134.252;2023-03-23T04:02:38;100173.06;;;11.00;36.54
46846;BME280;33947;46.804;134.252;2023-03-23T04:05:42;100172.41;;;10.94;36.81
46846;BME280;33947;46.804;134.252;2023-03-23T04:08:49;100162.41;;;11.02;37.37
46846;BME280;33947;46.804;134.252;2023-03-23T04:11:52;100162.16;;;10.83;37.94
46846;BME280;33947;46.804;134.252;2023-03-23T04:15:15;100167.13;;;11.19;36.34
46846;BME280;33947;46.804;134.252;2023-03-23T04:18:18;100141.66;;;11.12;36.16
46846;BME280;33947;46.804;134.252;2023-03-23T04:21:23;100152.13;;;10.91;35.73
46846;BME280;33947;46.804;134.252;2023-03-23T04:24:31;100132.63;;;10.92;34.64
46846;BME280;33947;46.804;134.252;2023-03-23T04:27:36;100140.63;;;11.16;35.11
46846;BME280;33947;46.804;134.252;2023-03-23T04:30:41;100140.53;;;11.19;34.80
46846;BME280;33947;46.804;134.252;2023-03-23T04:33:47;100134.66;;;11.35;35.15
46846;BME280;33947;46.804;134.252;2023-03-23T04:36:51;100143.19;;;10.94;31.87
46846;BME280;33947;46.804;134.252;2023-03-23T04:40:01;100110.78;;;10.57;34.47
46846;BME280;33947;46.804;134.252;2023-03-23T04:43:16;100124.88;;;10.86;33.60
46846;BME280;33947;46.804;134.252;2023-03-23T04:46:29;100081.44;;;10.62;32.33
46846;BME280;33947;46.804;134.252;2023-03-23T04:49:36;100120.66;;;10.79;32.52
46846;BME280;33947;46.804;134.252;2023-03-23T04:52:54;100121.91;;;10.94;32.83
46846;BME280;33947;46.804;134.252;2023-03-23T04:55:59;100127.75;;;10.80;32.67
46846;BME280;33947;46.804;134.252;2023-03-23T04:59:09;100125.00;;;10.56;30.21
46846;BME280;33947;46.804;134.252;2023-03-23T05:02:32;100117.41;;;10.70;32.38
46846;BME280;33947;46.804;134.252;2023-03-23T05:05:35;100124.56;;;10.41;32.23
46846;BME280;33947;46.804;134.252;2023-03-23T05:08:42;100115.91;;;10.35;30.57
46846;BME280;33947;46.804;134.252;2023-03-23T05:11:46;100111.63;;;10.31;31.52
46846;BME280;33947;46.804;134.252;2023-03-23T05:14:49;100122.19;;;10.32;32.19
46846;BME280;33947;46.804;134.252;2023-03-23T05:17:54;100096.34;;;9.82;30.94
46846;BME280;33947;46.804;134.252;2023-03-23T05:21:00;100152.00;;;10.13;31.99
46846;BME280;33947;46.804;134.252;2023-03-23T05:24:07;100150.56;;;9.73;30.50
46846;BME280;33947;46.804;134.252;2023-03-23T05:27:09;100141.59;;;9.77;32.35
46846;BME280;33947;46.804;134.252;2023-03-23T05:30:18;100155.75;;;9.46;31.40
46846;BME280;33947;46.804;134.252;2023-03-23T05:33:22;100151.78;;;9.61;31.26
46846;BME280;33947;46.804;134.252;2023-03-23T05:36:34;100149.81;;;9.36;29.86
46846;BME280;33947;46.804;134.252;2023-03-23T05:39:47;100155.22;;;9.33;30.91
46846;BME280;33947;46.804;134.252;2023-03-23T05:43:09;100150.81;;;9.64;30.91
46846;BME280;33947;46.804;134.252;2023-03-23T05:46:31;100146.56;;;9.26;31.56
46846;BME280;33947;46.804;134.252;2023-03-23T05:49:36;100142.94;;;9.61;32.09
46846;BME280;33947;46.804;134.252;2023-03-23T05:52:43;100129.88;;;9.54;32.17
46846;BME280;33947;46.804;134.252;2023-03-23T05:55:48;100124.84;;;9.45;32.22
46846;BME280;33947;46.804;134.252;2023-03-23T05:58:58;100144.22;;;9.47;32.67
46846;BME280;33947;46.804;134.252;2023-03-23T06:02:04;100135.09;;;9.58;32.30
46846;BME280;33947;46.804;134.252;2023-03-23T06:05:08;100153.44;;;9.34;32.30
46846;BME280;33947;46.804;134.252;2023-03-23T06:08:14;100154.69;;;8.87;32.10
46846;BME280;33947;46.804;134.252;2023-03-23T06:11:17;100152.75;;;8.94;31.44
46846;BME280;33947;46.804;134.252;2023-03-23T06:14:39;100150.81;;;9.01;32.72
46846;BME280;33947;46.804;134.252;2023-03-23T06:17:42;100111.72;;;8.76;32.18
46846;BME280;33947;46.804;134.252;2023-03-23T06:20:45;100157.31;;;8.87;32.06
46846;BME280;33947;46.804;134.252;2023-03-23T06:24:21;100150.03;;;8.62;32.49
46846;BME280;33947;46.804;134.252;2023-03-23T06:27:25;100163.59;;;8.85;32.21
46846;BME280;33947;46.804;134.252;2023-03-23T06:30:29;100161.19;;;8.75;31.70
46846;BME280;33947;46.804;134.252;2023-03-23T06:33:34;100163.94;;;8.71;31.68
46846;BME280;33947;46.804;134.252;2023-03-23T06:37:03;100155.47;;;8.56;31.49
46846;BME280;33947;46.804;134.252;2023-03-23T06:40:16;100145.03;;;8.50;32.37
46846;BME280;33947;46.804;134.252;2023-03-23T06:43:29;100166.00;;;8.59;32.16
46846;BME280;33947;46.804;134.252;2023-03-23T06:46:47;100160.44;;;8.31;32.53
46846;BME280;33947;46.804;134.252;2023-03-23T06:49:58;100155.13;;;8.32;33.23
46846;BME280;33947;46.804;134.252;2023-03-23T06:53:04;100172.91;;;8.25;33.38
46846;BME280;33947;46.804;134.252;2023-03-23T06:56:09;100176.63;;;8.18;33.74
46846;BME280;33947;46.804;134.252;2023-03-23T06:59:12;100177.75;;;8.08;34.01
46846;BME280;33947;46.804;134.252;2023-03-23T07:02:15;100185.25;;;8.26;34.23
46846;BME280;33947;46.804;134.252;2023-03-23T07:05:39;100161.25;;;8.34;34.08
46846;BME280;33947;46.804;134.252;2023-03-23T07:08:44;100189.47;;;8.35;34.80
46846;BME280;33947;46.804;134.252;2023-03-23T07:11:53;100202.41;;;8.08;34.61
46846;BME280;33947;46.804;134.252;2023-03-23T07:15:07;100199.72;;;7.69;35.01
46846;BME280;33947;46.804;134.252;2023-03-23T07:18:15;100213.59;;;7.80;35.30
46846;BME280;33947;46.804;134.252;2023-03-23T07:21:21;100211.38;;;8.03;34.89
46846;BME280;33947;46.804;134.252;2023-03-23T07:24:24;100214.88;;;8.03;34.67
46846;BME280;33947;46.804;134.252;2023-03-23T07:27:39;100221.00;;;8.05;34.85
46846;BME280;33947;46.804;134.252;2023-03-23T07:30:42;100225.66;;;7.94;35.24
46846;BME280;33947;46.804;134.252;2023-03-23T07:33:48;100236.84;;;7.64;34.94
46846;BME280;33947;46.804;134.252;2023-03-23T07:36:51;100250.38;;;7.47;34.75
46846;BME280;33947;46.804;134.252;2023-03-23T07:39:55;100213.03;;;7.17;34.82
46846;BME280;33947;46.804;134.252;2023-03-23T07:42:59;100249.41;;;7.03;32.35
46846;BME280;33947;46.804;134.252;2023-03-23T07:46:25;100261.09;;;6.86;33.72
46846;BME280;33947;46.804;134.252;2023-03-23T07:49:40;100275.91;;;6.97;35.56
46846;BME280;33947;46.804;134.252;2023-03-23T07:52:56;100283.59;;;7.12;35.79
46846;BME280;33947;46.804;134.252;2023-03-23T07:56:01;100272.13;;;7.12;35.51
46846;BME280;33947;46.804;134.252;2023-03-23T07:59:31;100301.84;;;6.70;35.73
46846;BME280;33947;46.804;134.252;2023-03-23T08:02:35;100303.22;;;6.34;35.14
46846;BME280;33947;46.804;134.252;2023-03-23T08:06:03;100288.69;;;6.01;35.69
46846;BME280;33947;46.804;134.252;2023-03-23T08:09:31;100299.88;;;6.20;34.98
46846;BME280;33947;46.804;134.252;2023-03-23T08:12:55;100305.41;;;5.97;35.34
46846;BME280;33947;46.804;134.252;2023-03-23T08:16:23;100310.16;;;5.65;34.97
46846;BME280;33947;46.804;134.252;2023-03-23T08:19:41;100318.09;;;5.62;35.47
46846;BME280;33947;46.804;134.252;2023-03-23T08:23:05;100320.81;;;5.53;35.16
46846;BME280;33947;46.804;134.252;2023-03-23T08:26:31;100328.72;;;5.51;35.74
46846;BME280;33947;46.804;134.252;2023-03-23T08:30:07;100320.91;;;5.40;36.12
46846;BME280;33947;46.804;134.252;2023-03-23T08:33:34;100343.69;;;5.50;36.28
46846;BME280;33947;46.804;134.252;2023-03-23T08:36:57;100350.69;;;5.48;36.01
46846;BME280;33947;46.804;134.252;2023-03-23T08:40:07;100350.00;;;5.28;35.59
46846;BME280;33947;46.804;134.252;2023-03-23T08:43:32;100360.66;;;5.14;35.95
46846;BME280;33947;46.804;134.252;2023-03-23T08:47:13;100361.56;;;5.10;35.82
46846;BME280;33947;46.804;134.252;2023-03-23T08:50:49;100360.00;;;4.82;36.43
46846;BME280;33947;46.804;134.252;2023-03-23T08:54:12;100389.97;;;4.53;36.26
46846;BME280;33947;46.804;134.252;2023-03-23T08:57:35;100402.19;;;4.65;36.24
46846;BME280;33947;46.804;134.252;2023-03-23T09:00:52;100392.66;;;4.36;36.44
46846;BME280;33947;46.804;134.252;2023-03-23T09:04:13;100387.47;;;4.16;35.56
46846;BME280;33947;46.804;134.252;2023-03-23T09:07:32;100410.28;;;3.95;36.42
46846;BME280;33947;46.804;134.252;2023-03-23T09:10:35;100392.84;;;3.63;36.00
46846;BME280;33947;46.804;134.252;2023-03-23T09:13:38;100419.06;;;3.57;36.15
46846;BME280;33947;46.804;134.252;2023-03-23T09:17:02;100429.63;;;3.60;36.44
46846;BME280;33947;46.804;134.252;2023-03-23T09:20:06;100438.34;;;3.43;35.95
46846;BME280;33947;46.804;134.252;2023-03-23T09:23:19;100438.34;;;3.37;36.91
46846;BME280;33947;46.804;134.252;2023-03-23T09:26:23;100448.84;;;3.43;36.57
46846;BME280;33947;46.804;134.252;2023-03-23T09:29:26;100457.59;;;3.31;35.79
46846;BME280;33947;46.804;134.252;2023-03-23T09:32:29;100451.47;;;3.25;36.35
46846;BME280;33947;46.804;134.252;2023-03-23T09:35:33;100455.81;;;3.12;36.10
46846;BME280;33947;46.804;134.252;2023-03-23T09:38:37;100453.16;;;3.04;36.98
46846;BME280;33947;46.804;134.252;2023-03-23T09:48:55;100453.94;;;2.70;36.57
46846;BME280;33947;46.804;134.252;2023-03-23T09:52:15;100492.47;;;2.90;37.06
46846;BME280;33947;46.804;134.252;2023-03-23T09:55:19;100489.81;;;2.74;37.51
46846;BME280;33947;46.804;134.252;2023-03-23T09:58:35;100507.38;;;2.93;37.78
46846;BME280;33947;46.804;134.252;2023-03-23T10:01:52;100511.66;;;2.78;36.97
46846;BME280;33947;46.804;134.252;2023-03-23T10:05:14;100501.13;;;2.67;37.44
46846;BME280;33947;46.804;134.252;2023-03-23T10:08:24;100476.47;;;2.33;38.90
46846;BME280;33947;46.804;134.252;2023-03-23T10:11:54;100503.56;;;2.33;38.70
46846;BME280;33947;46.804;134.252;2023-03-23T10:15:22;100509.59;;;2.21;39.93
46846;BME280;33947;46.804;134.252;2023-03-23T10:18:29;100519.09;;;2.07;41.37
46846;BME280;33947;46.804;134.252;2023-03-23T10:21:37;100526.25;;;2.29;40.05
46846;BME280;33947;46.804;134.252;2023-03-23T10:24:57;100516.41;;;1.97;39.81
46846;BME280;33947;46.804;134.252;2023-03-23T10:31:15;100518.97;;;1.91;40.71
46846;BME280;33947;46.804;134.252;2023-03-23T10:34:35;100531.94;;;1.77;40.92
46846;BME280;33947;46.804;134.252;2023-03-23T10:37:44;100545.13;;;1.85;40.63
46846;BME280;33947;46.804;134.252;2023-03-23T10:40:55;100556.44;;;1.81;40.36
46846;BME280;33947;46.804;134.252;2023-03-23T10:43:59;100553.66;;;1.65;40.89
46846;BME280;33947;46.804;134.252;2023-03-23T10:47:08;100540.63;;;1.70;40.65
46846;BME280;33947;46.804;134.252;2023-03-23T10:50:15;100556.41;;;1.78;41.15
46846;BME280;33947;46.804;134.252;2023-03-23T10:53:23;100566.84;;;1.73;41.46
46846;BME280;33947;46.804;134.252;2023-03-23T10:56:38;100575.53;;;1.70;41.78
46846;BME280;33947;46.804;134.252;2023-03-23T10:59:41;100567.47;;;1.49;41.78
46846;BME280;33947;46.804;134.252;2023-03-23T11:02:46;100553.53;;;1.50;42.13
46846;BME280;33947;46.804;134.252;2023-03-23T11:05:56;100492.00;;;1.09;43.20
46846;BME280;33947;46.804;134.252;2023-03-23T11:09:10;100570.06;;;1.46;44.48
46846;BME280;33947;46.804;134.252;2023-03-23T11:12:17;100558.47;;;1.25;43.72
46846;BME280;33947;46.804;134.252;2023-03-23T11:15:42;100572.50;;;1.32;44.68
46846;BME280;33947;46.804;134.252;2023-03-23T11:18:46;100572.41;;;1.22;43.11
46846;BME280;33947;46.804;134.252;2023-03-23T11:21:55;100556.44;;;1.00;43.88
46846;BME280;33947;46.804;134.252;2023-03-23T11:25:05;100568.66;;;1.01;43.49
46846;BME280;33947;46.804;134.252;2023-03-23T11:28:09;100562.50;;;0.96;44.05
46846;BME280;33947;46.804;134.252;2023-03-23T11:31:11;100573.91;;;1.01;43.66
46846;BME280;33947;46.804;134.252;2023-03-23T11:40:47;100576.91;;;0.65;43.76
46846;BME280;33947;46.804;134.252;2023-03-23T11:43:52;100591.19;;;0.92;43.26
46846;BME280;33947;46.804;134.252;2023-03-23T11:47:30;100592.84;;;0.83;43.01
46846;BME280;33947;46.804;134.252;2023-03-23T11:50:49;100600.72;;;0.85;43.31
46846;BME280;33947;46.804;134.252;2023-03-23T11:57:23;100590.28;;;0.88;43.93
46846;BME280;33947;46.804;134.252;2023-03-23T12:00:28;100594.81;;;1.00;43.31
46846;BME280;33947;46.804;134.252;2023-03-23T12:07:06;100583.31;;;0.87;44.21
46846;BME280;33947;46.804;134.252;2023-03-23T12:10:28;100593.56;;;0.75;45.97
46846;BME280;33947;46.804;134.252;2023-03-23T12:17:51;100592.44;;;0.55;45.96
46846;BME280;33947;46.804;134.252;2023-03-23T12:21:37;100586.31;;;0.53;45.84
46846;BME280;33947;46.804;134.252;2023-03-23T12:28:35;100606.75;;;0.24;47.82
46846;BME280;33947;46.804;134.252;2023-03-23T12:39:08;100603.97;;;0.13;48.68
46846;BME280;33947;46.804;134.252;2023-03-23T12:48:52;100601.84;;;-0.10;48.21
46846;BME280;33947;46.804;134.252;2023-03-23T12:52:07;100608.69;;;-0.18;47.71
46846;BME280;33947;46.804;134.252;2023-03-23T12:58:32;100602.34;;;-0.30;47.21
46846;BME280;33947;46.804;134.252;2023-03-23T13:01:42;100603.16;;;-0.34;47.24
46846;BME280;33947;46.804;134.252;2023-03-23T13:04:56;100606.44;;;-0.44;48.97
46846;BME280;33947;46.804;134.252;2023-03-23T13:08:12;100605.44;;;-0.51;48.05
46846;BME280;33947;46.804;134.252;2023-03-23T13:11:27;100606.25;;;-0.55;47.76
46846;BME280;33947;46.804;134.252;2023-03-23T13:18:17;100608.16;;;-0.46;49.06
46846;BME280;33947;46.804;134.252;2023-03-23T13:21:30;100615.81;;;-0.54;48.48
46846;BME280;33947;46.804;134.252;2023-03-23T13:24:38;100605.28;;;-0.59;48.06
46846;BME280;33947;46.804;134.252;2023-03-23T13:27:42;100585.19;;;-0.63;48.97
46846;BME280;33947;46.804;134.252;2023-03-23T13:37:24;100623.41;;;-0.66;49.28
46846;BME280;33947;46.804;134.252;2023-03-23T13:40:31;100625.25;;;-0.61;48.23
46846;BME280;33947;46.804;134.252;2023-03-23T13:43:35;100619.84;;;-0.70;48.81
46846;BME280;33947;46.804;134.252;2023-03-23T13:46:38;100608.28;;;-0.83;49.00
46846;BME280;33947;46.804;134.252;2023-03-23T13:53:26;100630.16;;;-0.76;49.67
46846;BME280;33947;46.804;134.252;2023-03-23T13:56:48;100618.59;;;-0.89;49.50
46846;BME280;33947;46.804;134.252;2023-03-23T13:59:59;100561.53;;;-1.17;49.17
46846;BME280;33947;46.804;134.252;2023-03-23T14:06:37;100640.66;;;-0.75;50.11
46846;BME280;33947;46.804;134.252;2023-03-23T14:09:45;100632.59;;;-0.85;49.74
46846;BME280;33947;46.804;134.252;2023-03-23T14:12:52;100622.91;;;-0.91;50.02
46846;BME280;33947;46.804;134.252;2023-03-23T14:16:00;100642.19;;;-0.83;49.87
46846;BME280;33947;46.804;134.252;2023-03-23T14:19:23;100658.56;;;-0.90;50.52
46846;BME280;33947;46.804;134.252;2023-03-23T14:22:33;100664.88;;;-0.80;50.23
46846;BME280;33947;46.804;134.252;2023-03-23T14:25:36;100656.19;;;-0.78;50.26
46846;BME280;33947;46.804;134.252;2023-03-23T14:28:41;100646.53;;;-0.83;49.81
46846;BME280;33947;46.804;134.252;2023-03-23T14:31:44;100671.16;;;-0.70;50.62
46846;BME280;33947;46.804;134.252;2023-03-23T14:34:50;100667.53;;;-0.77;50.67
46846;BME280;33947;46.804;134.252;2023-03-23T14:37:54;100666.63;;;-0.79;50.54
46846;BME280;33947;46.804;134.252;2023-03-23T14:41:04;100670.50;;;-1.02;52.04
46846;BME280;33947;46.804;134.252;2023-03-23T14:44:12;100677.47;;;-0.99;51.76
46846;BME280;33947;46.804;134.252;2023-03-23T14:47:34;100671.34;;;-1.01;52.79
46846;BME280;33947;46.804;134.252;2023-03-23T14:50:40;100648.34;;;-1.21;52.53
46846;BME280;33947;46.804;134.252;2023-03-23T14:53:43;100672.19;;;-1.04;52.67
46846;BME280;33947;46.804;134.252;2023-03-23T14:56:47;100673.97;;;-1.01;52.96
46846;BME280;33947;46.804;134.252;2023-03-23T14:59:50;100670.44;;;-1.03;53.13
46846;BME280;33947;46.804;134.252;2023-03-23T15:02:56;100671.34;;;-1.01;53.42
46846;BME280;33947;46.804;134.252;2023-03-23T15:06:03;100681.63;;;-1.09;53.39
46846;BME280;33947;46.804;134.252;2023-03-23T15:09:16;100685.09;;;-1.08;53.31
46846;BME280;33947;46.804;134.252;2023-03-23T15:12:26;100688.47;;;-1.12;54.05
46846;BME280;33947;46.804;134.252;2023-03-23T15:15:33;100665.66;;;-1.23;54.20
46846;BME280;33947;46.804;134.252;2023-03-23T15:18:37;100690.34;;;-1.43;58.31
46846;BME280;33947;46.804;134.252;2023-03-23T15:21:55;100697.53;;;-1.35;53.91
46846;BME280;33947;46.804;134.252;2023-03-23T15:25:10;100702.00;;;-1.29;54.01
46846;BME280;33947;46.804;134.252;2023-03-23T15:28:21;100687.97;;;-1.34;54.34
46846;BME280;33947;46.804;134.252;2023-03-23T15:31:25;100688.78;;;-1.37;54.80
46846;BME280;33947;46.804;134.252;2023-03-23T15:34:33;100640.28;;;-1.68;55.35
46846;BME280;33947;46.804;134.252;2023-03-23T15:37:46;100682.38;;;-1.51;54.72
46846;BME280;33947;46.804;134.252;2023-03-23T15:40:51;100651.63;;;-1.65;55.16
46846;BME280;33947;46.804;134.252;2023-03-23T15:44:08;100699.22;;;-1.35;55.66
46846;BME280;33947;46.804;134.252;2023-03-23T15:47:17;100692.38;;;-1.32;55.03
46846;BME280;33947;46.804;134.252;2023-03-23T15:53:36;100699.00;;;-1.46;55.62
46846;BME280;33947;46.804;134.252;2023-03-23T15:56:43;100696.25;;;-1.51;56.49
46846;BME280;33947;46.804;134.252;2023-03-23T15:59:47;100693.94;;;-1.40;55.53
46846;BME280;33947;46.804;134.252;2023-03-23T16:03:03;100696.88;;;-1.26;55.52
46846;BME280;33947;46.804;134.252;2023-03-23T16:06:12;100702.31;;;-1.15;54.35
46846;BME280;33947;46.804;134.252;2023-03-23T16:09:26;100700.31;;;-1.27;54.63
46846;BME280;33947;46.804;134.252;2023-03-23T16:12:31;100709.13;;;-1.22;54.66
46846;BME280;33947;46.804;134.252;2023-03-23T16:15:35;100701.13;;;-1.29;54.33
46846;BME280;33947;46.804;134.252;2023-03-23T16:18:40;100686.03;;;-1.43;55.01
46846;BME280;33947;46.804;134.252;2023-03-23T16:21:44;100705.84;;;-1.50;55.73
46846;BME280;33947;46.804;134.252;2023-03-23T16:24:48;100681.03;;;-1.70;56.38
46846;BME280;33947;46.804;134.252;2023-03-23T16:27:52;100687.63;;;-1.83;57.14
46846;BME280;33947;46.804;134.252;2023-03-23T16:30:56;100698.72;;;-1.91;57.56
46846;BME280;33947;46.804;134.252;2023-03-23T16:34:01;100709.47;;;-1.78;56.92
46846;BME280;33947;46.804;134.252;2023-03-23T16:37:05;100695.53;;;-1.80;56.67
46846;BME280;33947;46.804;134.252;2023-03-23T16:40:11;100715.38;;;-1.84;56.69
46846;BME280;33947;46.804;134.252;2023-03-23T16:43:16;100709.41;;;-1.80;56.65
46846;BME280;33947;46.804;134.252;2023-03-23T16:46:20;100695.31;;;-1.88;57.10
46846;BME280;33947;46.804;134.252;2023-03-23T16:49:24;100691.28;;;-2.09;57.85
46846;BME280;33947;46.804;134.252;2023-03-23T16:52:28;100679.13;;;-2.10;56.98
46846;BME280;33947;46.804;134.252;2023-03-23T16:55:34;100724.56;;;-1.98;57.52
46846;BME280;33947;46.804;134.252;2023-03-23T16:58:39;100719.75;;;-1.83;57.10
46846;BME280;33947;46.804;134.252;2023-03-23T17:01:45;100708.16;;;-1.62;55.76
46846;BME280;33947;46.804;134.252;2023-03-23T17:04:49;100705.06;;;-1.47;54.66
46846;BME280;33947;46.804;134.252;2023-03-23T17:07:54;100722.47;;;-1.44;54.80
46846;BME280;33947;46.804;134.252;2023-03-23T17:10:59;100729.00;;;-1.61;55.75
46846;BME280;33947;46.804;134.252;2023-03-23T17:14:03;100705.50;;;-1.97;56.84
46846;BME280;33947;46.804;134.252;2023-03-23T17:17:08;100689.34;;;-2.16;57.22
46846;BME280;33947;46.804;134.252;2023-03-23T17:20:13;100703.22;;;-2.17;57.36
46846;BME280;33947;46.804;134.252;2023-03-23T17:23:17;100712.44;;;-2.28;58.37
46846;BME280;33947;46.804;134.252;2023-03-23T17:26:21;100736.59;;;-2.02;57.46
46846;BME280;33947;46.804;134.252;2023-03-23T17:29:26;100753.75;;;-2.09;57.99
46846;BME280;33947;46.804;134.252;2023-03-23T17:32:34;100753.47;;;-2.20;58.79